ADDS METAR Data INFO
IDs: Format: Raw Decoded Include TAF

Data at: 2054 UTC 26 May 2017

KBWD 262035Z AUTO 24004KT 10SM -RA CLR 35/16 A2981 RMK AO2 P0002
KBWD 262015Z AUTO 21006KT 10SM -RA CLR 35/18 A2981 RMK AO2
KBWD 261955Z AUTO 22005KT 10SM -RA CLR 34/18 A2981 RMK AO2 P0001
KBWD 261935Z AUTO 28004KT 10SM -RA CLR 34/18 A2982 RMK AO2
KBWD 261915Z AUTO 20007KT 10SM -RA CLR 34/19 A2982 RMK AO2
KBWD 261855Z AUTO 21005KT 10SM CLR 34/19 A2983 RMK AO2
KBWD 261755Z AUTO 20006KT 10SM CLR 33/20 A2983 RMK AO2
KBWD 261735Z AUTO 19006G15KT 170V230 10SM CLR 32/21 A2984 RMK AO2
KBWD 261715Z AUTO 21007KT 10SM CLR 32/21 A2984 RMK AO2
KBWD 261655Z AUTO 24011G17KT 10SM CLR 32/22 A2984 RMK AO2
KBWD 261635Z AUTO 22012KT 10SM CLR 31/22 A2984 RMK AO2
KBWD 261615Z AUTO 21011G18KT 10SM CLR 30/22 A2984 RMK AO2
KBWD 261555Z AUTO 21014G18KT 7SM FEW022 30/22 A2984 RMK AO2
KBWD 261535Z AUTO 21010G16KT 10SM BKN022 29/23 A2984 RMK AO2
KBWD 261515Z AUTO 21011G15KT 8SM OVC020 28/22 A2984 RMK AO2
KBWD 261455Z AUTO 20009KT 10SM OVC020 27/22 A2984 RMK AO2
KBWD 261435Z AUTO 20012KT 10SM BKN020 27/22 A2984 RMK AO2
KBWD 261415Z AUTO 20010KT 9SM FEW020 27/22 A2984 RMK AO2
KBWD 261355Z AUTO 16006KT 8SM CLR 25/22 A2983 RMK AO2
KBWD 261335Z AUTO 17008KT 9SM CLR 24/22 A2982 RMK AO2
KBWD 261315Z AUTO 17006KT 9SM CLR 23/22 A2982 RMK AO2
KBWD 261255Z AUTO 16005KT 8SM -RA CLR 22/22 A2982 RMK AO2
KBWD 261235Z AUTO 16006KT 7SM CLR 22/21 A2981 RMK AO2
KBWD 261215Z AUTO 15006KT 7SM CLR 22/21 A2980 RMK AO2
KBWD 261155Z AUTO 16004KT 8SM CLR 22/21 A2980 RMK AO2
KBWD 261135Z AUTO 16006KT 10SM CLR 22/21 A2979 RMK AO2
KBWD 261115Z AUTO 15006KT 10SM CLR 22/21 A2979 RMK AO2
KBWD 261055Z AUTO 15006KT 10SM CLR 22/21 A2978 RMK AO2
KBWD 261035Z AUTO 14006KT 10SM CLR 22/20 A2978 RMK AO2
KBWD 261015Z AUTO 15007KT 10SM CLR 22/20 A2978 RMK AO2
KBWD 260955Z AUTO 15007KT 10SM FEW024 22/20 A2978 RMK AO2
KBWD 260935Z AUTO 16007KT 10SM FEW041 22/20 A2978 RMK AO2
KBWD 260915Z AUTO 15007KT 10SM CLR 22/20 A2977 RMK AO2
KBWD 260855Z AUTO 15008KT 10SM CLR 22/20 A2976 RMK AO2
KBWD 260835Z AUTO 15007KT 10SM FEW031 22/20 A2976 RMK AO2
KBWD 260815Z AUTO 16004KT 10SM CLR 22/19 A2976 RMK AO2
KBWD 260755Z AUTO 15006KT 10SM CLR 22/19 A2975 RMK AO2
KBWD 260735Z AUTO 14004KT 10SM CLR 22/18 A2975 RMK AO2
KBWD 260715Z AUTO 14005KT 10SM FEW031 22/18 A2974 RMK AO2
KBWD 260655Z AUTO 14004KT 10SM SCT031 22/18 A2974 RMK AO2
KBWD 260635Z AUTO 14004KT 10SM FEW033 23/18 A2974 RMK AO2
KBWD 260615Z AUTO 15003KT 10SM FEW035 23/18 A2973 RMK AO2
KBWD 260555Z AUTO 15005KT 10SM CLR 23/17 A2973 RMK AO2
KBWD 260535Z AUTO 14004KT 10SM CLR 24/17 A2973 RMK AO2
KBWD 260515Z AUTO 13004KT 10SM FEW028 24/17 A2973 RMK AO2
KBWD 260455Z AUTO 15005KT 10SM CLR 25/17 A2972 RMK AO2
KBWD 260435Z AUTO 17004KT 10SM SCT060 25/17 A2971 RMK AO2
KBWD 260415Z AUTO 17006KT 10SM SCT060 27/17 A2970 RMK AO2
KBWD 260355Z AUTO 16007KT 10SM FEW060 27/16 A2969 RMK AO2
KBWD 260335Z AUTO 17007KT 10SM CLR 28/16 A2969 RMK AO2
KBWD 260315Z AUTO 17009G14KT 10SM CLR 28/16 A2967 RMK AO2
KBWD 260255Z AUTO 16010G14KT 10SM CLR 29/15 A2966 RMK AO2
KBWD 260235Z AUTO 16009G14KT 10SM CLR 29/15 A2965 RMK AO2
KBWD 260215Z AUTO 16010KT 10SM CLR 29/15 A2964 RMK AO2
KBWD 260155Z AUTO 16010G14KT 10SM CLR 30/15 A2963 RMK AO2
KBWD 260135Z AUTO 15009KT 10SM CLR 30/15 A2963 RMK AO2
KBWD 260115Z AUTO 15009G15KT 10SM CLR 30/15 A2962 RMK AO2
KBWD 260055Z AUTO 15011G16KT 10SM CLR 32/16 A2962 RMK AO2
KBWD 260035Z AUTO 16014KT 10SM CLR 32/15 A2961 RMK AO2
KBWD 260015Z AUTO 15011G18KT 10SM CLR 33/16 A2961 RMK AO2
KBWD 252355Z AUTO 16011G16KT 10SM CLR 33/16 A2961 RMK AO2
KBWD 252335Z AUTO 16010G17KT 10SM CLR 33/16 A2962 RMK AO2
KBWD 252315Z AUTO 17011G18KT 10SM -RA CLR 34/14 A2962 RMK AO2
KBWD 252255Z AUTO 18011KT 10SM -RA CLR 35/15 A2961 RMK AO2 P0001
KBWD 252235Z AUTO 19013G21KT 10SM -RA CLR 35/14 A2961 RMK AO2
KBWD 252215Z AUTO 18009G17KT 8SM -RA CLR 35/14 A2962 RMK AO2
KBWD 252155Z AUTO 21016G21KT 5SM -RA CLR 35/14 A2963 RMK AO2
KBWD 252135Z AUTO 20010G23KT 160V220 10SM -RA CLR 35/14 A2963 RMK AO2
KBWD 252115Z AUTO 19014G21KT 10SM CLR 35/14 A2964 RMK AO2
KBWD 252055Z AUTO 19015G20KT 10SM CLR 35/14 A2964 RMK AO2
KBWD 251915Z AUTO 21015G24KT 7SM CLR 33/14 A2967 RMK AO2
KBWD 251855Z AUTO 18015G18KT 9SM CLR 32/14 A2968 RMK AO2
KBWD 251835Z AUTO 19016G20KT 8SM CLR 32/14 A2969 RMK AO2
KBWD 251815Z AUTO 19013G21KT 8SM CLR 30/14 A2969 RMK AO2
KBWD 251755Z AUTO 19013G22KT 8SM CLR 30/13 A2970 RMK AO2
KBWD 251735Z AUTO 18013G21KT 8SM CLR 29/13 A2970 RMK AO2
KBWD 251715Z AUTO 18014G20KT 150V210 7SM CLR 29/13 A2970 RMK AO2
KBWD 251655Z AUTO 18015G22KT 7SM CLR 28/13 A2971 RMK AO2
KBWD 251635Z AUTO 18015G24KT 8SM CLR 27/13 A2971 RMK AO2
KBWD 251615Z AUTO 18014G22KT 8SM CLR 27/13 A2972 RMK AO2
KBWD 251555Z AUTO 18014G22KT 8SM CLR 26/13 A2972 RMK AO2
KBWD 251535Z AUTO 20015G21KT 8SM CLR 25/13 A2972 RMK AO2
KBWD 251515Z AUTO 18012G22KT 7SM CLR 25/13 A2972 RMK AO2
KBWD 251455Z AUTO 18012KT 9SM CLR 24/12 A2972 RMK AO2
KBWD 251435Z AUTO 18011G15KT 9SM CLR 23/12 A2972 RMK AO2
KBWD 251415Z AUTO 19007G16KT 9SM CLR 22/12 A2973 RMK AO2
KBWD 251355Z AUTO 17007KT 8SM CLR 20/12 A2973 RMK AO2
KBWD 251335Z AUTO 17006KT 8SM CLR 19/10 A2972 RMK AO2
KBWD 251315Z AUTO 17006KT 8SM CLR 18/11 A2972 RMK AO2
KBWD 251255Z AUTO 16005KT 9SM CLR 17/11 A2972 RMK AO2
KBWD 251235Z AUTO 00000KT 8SM CLR 16/11 A2972 RMK AO2
KBWD 251215Z AUTO 15004KT 9SM CLR 14/10 A2971 RMK AO2
KBWD 251155Z AUTO 13007KT 9SM CLR 13/10 A2971 RMK AO2
KBWD 251135Z AUTO 00000KT 10SM CLR 12/10 A2971 RMK AO2
KBWD 251115Z AUTO 00000KT 10SM FEW047 SCT050 14/10 A2970 RMK AO2
KBWD 251055Z AUTO 13004KT 10SM SCT047 BKN050 13/10 A2970 RMK AO2
KBWD 251035Z AUTO 14004KT 10SM SCT050 13/12 A2969 RMK AO2
KBWD 251015Z AUTO 00000KT 10SM FEW047 12/12 A2970 RMK AO2
KBWD 250955Z AUTO 00000KT 10SM FEW049 13/12 A2969 RMK AO2


Page loaded:  20:54 UTC  |   01:54 PM Pacific  |   02:54 PM Mountain  |   03:54 PM Central  |   04:54 PM Eastern

 

ADVISORIES

FORECASTS

FORECASTS

OBSERVATIONS

USER TOOLS

ABOUT US